createdAt,value
2018-11-07T00:04:34.353Z,4.3
2018-11-07T00:19:35.725Z,4.3
2018-11-07T00:34:40.194Z,4
2018-11-07T00:49:34.351Z,3.9
2018-11-07T01:04:22.811Z,4
2018-11-07T01:19:19.522Z,4.1
2018-11-07T01:34:25.959Z,3.9
2018-11-07T01:49:58.504Z,3.5
2018-11-07T02:04:31.093Z,3.5
2018-11-07T02:19:13.924Z,3.7
2018-11-07T02:34:40.348Z,3.6
2018-11-07T02:49:31.436Z,3.9
2018-11-07T03:04:11.546Z,3.6
2018-11-07T03:19:55.460Z,3.3
2018-11-07T03:34:54.757Z,3.9
2018-11-07T03:49:29.776Z,3.3
2018-11-07T04:04:23.941Z,3.4
2018-11-07T04:19:14.483Z,3.1
2018-11-07T04:34:56.559Z,3.2
2018-11-07T04:49:37.295Z,3.1
2018-11-07T05:04:42.639Z,2.8
2018-11-07T05:19:31.768Z,3.2
2018-11-07T05:35:03.861Z,3
2018-11-07T05:50:01.537Z,2.7
2018-11-07T06:04:35.360Z,2.8
2018-11-07T06:19:28.193Z,2.7
2018-11-07T06:35:07.656Z,2.6
2018-11-07T06:49:47.913Z,3.2
2018-11-07T07:04:55.987Z,3.2
2018-11-07T07:19:26.138Z,3.7
2018-11-07T07:35:09.696Z,3.2
2018-11-07T07:49:38.267Z,3
2018-11-07T08:04:57.770Z,3.3
2018-11-07T08:20:23.612Z,2.8
2018-11-07T08:34:46.628Z,3.1
2018-11-07T08:49:42.369Z,3
2018-11-07T09:05:13.737Z,2.9
2018-11-07T09:19:44.572Z,2.6
2018-11-07T09:35:25.135Z,2.5
2018-11-07T09:49:51.166Z,2.5
2018-11-07T10:05:24.566Z,2.7
2018-11-07T10:19:57.560Z,2.1
2018-11-07T10:34:34.136Z,1.8
2018-11-07T10:50:02.038Z,2.2
2018-11-07T11:05:28.940Z,1.8
2018-11-07T11:20:15.322Z,1.6
2018-11-07T11:34:48.859Z,1.7
2018-11-07T11:50:04.323Z,1.8
2018-11-07T12:05:34.419Z,2.1
2018-11-07T12:20:01.116Z,2.3
2018-11-07T12:35:25.692Z,2.2
2018-11-07T12:49:50.025Z,2
2018-11-07T13:05:23.176Z,1.9
2018-11-07T13:20:00.755Z,2
2018-11-07T13:35:33.813Z,1.8
2018-11-07T13:50:09.176Z,1.4
2018-11-07T14:05:40.691Z,1.3
2018-11-07T14:20:09.777Z,1.3
2018-11-07T14:34:46.722Z,1.6
2018-11-07T14:50:21.768Z,1.3
2018-11-07T15:04:58.658Z,1.4
2018-11-07T15:20:21.723Z,1.6
2018-11-07T15:34:58.512Z,1.8
2018-11-07T15:50:36.091Z,1.9
2018-11-07T16:04:59.467Z,2.3
2018-11-07T16:20:50.428Z,2.6
2018-11-07T16:35:34.046Z,2.6
2018-11-07T16:50:31.294Z,2.4
2018-11-07T17:05:19.420Z,2.2
2018-11-07T17:20:08.130Z,2.4
2018-11-07T17:35:41.889Z,2.3
2018-11-07T17:50:26.239Z,2.6
2018-11-07T18:05:25.232Z,2.7
2018-11-07T18:20:12.220Z,3.5
2018-11-07T18:35:34.567Z,4
2018-11-07T18:50:14.047Z,3.2
2018-11-07T19:05:08.936Z,2.9
2018-11-07T19:20:33.613Z,2.8
2018-11-07T19:35:13.591Z,2.6
2018-11-07T19:50:44.466Z,2.9
2018-11-07T20:05:55.923Z,2.8
2018-11-07T20:11:15.460Z,2.8
2018-11-07T20:21:10.152Z,2.6
2018-11-07T20:36:06.028Z,2.7
2018-11-07T20:50:57.983Z,2.4
2018-11-07T21:05:38.871Z,2.5
2018-11-07T21:20:31.873Z,2.3
2018-11-07T21:35:25.868Z,2.3
2018-11-07T21:50:31.402Z,2.2
2018-11-07T22:05:17.329Z,2.4
2018-11-07T22:21:08.735Z,2.3
2018-11-07T22:36:09.000Z,2
2018-11-07T22:51:12.622Z,2.1
2018-11-07T23:06:03.928Z,2.2
2018-11-07T23:20:24.314Z,2
2018-11-07T23:36:05.412Z,1.9
2018-11-07T23:50:53.077Z,1.8
